Time;durP1;ratioP1;P1;durP2;ratioP2;P2;SDS_P1;SDS_P2;PMS_P1;PMS_P2;Temp;Humidity;BMP_temperature;BMP_pressure;BME280_temperature;BME280_humidity;BME280_pressure;Samples;Min_cycle;Max_cycle;Signal;HPM_P1;HPM_P2
2021/07/16 00:00:16;;;;;;;;;;;21.90;78.10;;;;;;4994507;28;1149;-72
2021/07/16 00:02:42;;;;;;;;;;;21.90;78.00;;;;;;4960787;28;1972;-73
2021/07/16 00:05:08;;;;;;;;;;;21.90;78.00;;;;;;4976045;28;1174;-73
2021/07/16 00:07:33;;;;;;;;;;;21.90;78.00;;;;;;4977099;28;1125;-71
2021/07/16 00:09:59;;;;;;;;;;;21.90;78.00;;;;;;4993583;28;1254;-73
2021/07/16 00:12:24;;;;;;;;;;;21.90;78.00;;;;;;4993936;28;1268;-70
2021/07/16 00:14:50;;;;;;;;;;;21.90;78.10;;;;;;4993557;28;1232;-70
2021/07/16 00:17:15;;;;;;;;;;;21.90;78.00;;;;;;4994306;28;1089;-71
2021/07/16 00:19:41;;;;;;;;;;;21.90;78.00;;;;;;4994007;28;1165;-70
2021/07/16 00:22:06;;;;;;;;;;;21.90;78.00;;;;;;4994139;28;1903;-70
2021/07/16 00:24:31;;;;;;;;;;;21.90;78.00;;;;;;4993303;28;1207;-70
2021/07/16 00:26:58;;;;;;;;;;;21.90;78.00;;;;;;4994084;28;1167;-74
2021/07/16 00:29:28;;;;;;;;;;;21.80;78.00;;;;;;4993995;28;1089;-74
2021/07/16 00:31:53;;;;;;;;;;;21.90;78.00;;;;;;4993574;28;1386;-73
2021/07/16 00:34:18;;;;;;;;;;;21.80;78.00;;;;;;4976125;28;1329;-73
2021/07/16 00:36:44;;;;;;;;;;;21.90;78.00;;;;;;4993606;28;1121;-73
2021/07/16 00:39:09;;;;;;;;;;;21.90;78.00;;;;;;4994049;28;1156;-72
2021/07/16 00:41:35;;;;;;;;;;;21.90;78.00;;;;;;4994226;28;1398;-73
2021/07/16 00:44:00;;;;;;;;;;;21.90;78.00;;;;;;4993141;28;1969;-73
2021/07/16 00:46:26;;;;;;;;;;;21.90;78.00;;;;;;4975829;28;1058;-74
2021/07/16 00:48:51;;;;;;;;;;;21.90;78.00;;;;;;4993981;28;1073;-73
2021/07/16 00:51:17;;;;;;;;;;;21.90;78.00;;;;;;4993821;28;1276;-73
2021/07/16 00:53:42;;;;;;;;;;;21.90;78.00;;;;;;4993092;28;1516;-74
2021/07/16 00:56:08;;;;;;;;;;;21.90;78.00;;;;;;4975729;28;1130;-73
2021/07/16 00:58:33;;;;;;;;;;;21.90;78.00;;;;;;4993720;28;1065;-74
2021/07/16 01:00:58;;;;;;;;;;;21.90;78.00;;;;;;4976208;28;976;-74
2021/07/16 01:03:24;;;;;;;;;;;21.90;78.00;;;;;;4993308;28;1985;-73
2021/07/16 01:05:49;;;;;;;;;;;21.80;78.00;;;;;;4975453;28;1070;-73
2021/07/16 01:08:15;;;;;;;;;;;21.90;78.00;;;;;;4993142;28;1121;-72
2021/07/16 01:10:40;;;;;;;;;;;21.90;78.00;;;;;;4993539;28;1078;-72
2021/07/16 01:13:13;;;;;;;;;;;21.90;78.00;;;;;;4975817;28;1214;-72
2021/07/16 01:15:38;;;;;;;;;;;21.90;78.00;;;;;;4976648;28;1066;-72
2021/07/16 01:18:04;;;;;;;;;;;21.90;78.00;;;;;;4975402;28;1106;-72
2021/07/16 01:20:30;;;;;;;;;;;21.90;78.00;;;;;;4975977;28;1077;-72
2021/07/16 01:22:55;;;;;;;;;;;21.90;78.00;;;;;;4974754;28;1958;-72
2021/07/16 01:25:22;;;;;;;;;;;21.80;78.30;;;;;;4992787;28;1112;-72
2021/07/16 01:27:48;;;;;;;;;;;21.90;78.00;;;;;;4975533;28;1117;-72
2021/07/16 01:30:13;;;;;;;;;;;21.80;77.90;;;;;;4992816;28;1124;-73
2021/07/16 01:32:39;;;;;;;;;;;21.90;78.00;;;;;;4975285;28;1339;-72
2021/07/16 01:35:05;;;;;;;;;;;21.80;77.90;;;;;;4992697;28;1090;-72
2021/07/16 01:37:30;;;;;;;;;;;21.90;78.00;;;;;;4975754;28;1083;-72
2021/07/16 01:39:57;;;;;;;;;;;21.90;78.00;;;;;;4992880;28;1082;-71
2021/07/16 01:42:22;;;;;;;;;;;21.90;78.00;;;;;;4992128;28;1931;-71
2021/07/16 01:44:48;;;;;;;;;;;21.90;78.00;;;;;;4992276;28;1120;-71
2021/07/16 01:47:13;;;;;;;;;;;21.80;77.90;;;;;;4975525;28;975;-72
2021/07/16 01:49:39;;;;;;;;;;;21.90;78.00;;;;;;4992712;28;1121;-72
2021/07/16 01:52:04;;;;;;;;;;;21.90;78.00;;;;;;4992414;28;1372;-73
2021/07/16 01:54:30;;;;;;;;;;;21.80;77.90;;;;;;4992053;28;1141;-72
2021/07/16 01:56:57;;;;;;;;;;;21.90;78.00;;;;;;4992303;28;1069;-72
2021/07/16 01:59:22;;;;;;;;;;;21.80;77.90;;;;;;4975012;28;1169;-71
2021/07/16 02:01:48;;;;;;;;;;;21.80;77.90;;;;;;4991610;28;1271;-72
2021/07/16 02:04:13;;;;;;;;;;;21.90;78.00;;;;;;4991749;28;1918;-72
2021/07/16 02:06:39;;;;;;;;;;;21.90;78.00;;;;;;4992669;28;1113;-72
2021/07/16 02:09:05;;;;;;;;;;;21.90;78.00;;;;;;4975384;28;1090;-72
2021/07/16 02:11:30;;;;;;;;;;;21.90;78.00;;;;;;4992144;28;1303;-72
2021/07/16 02:13:55;;;;;;;;;;;21.90;78.00;;;;;;4992497;28;1078;-72
2021/07/16 02:16:21;;;;;;;;;;;21.90;78.00;;;;;;4992003;28;1086;-72
2021/07/16 02:18:50;;;;;;;;;;;21.90;78.00;;;;;;4992809;28;1077;-73
2021/07/16 02:21:15;;;;;;;;;;;21.80;77.90;;;;;;4975003;28;1378;-71
2021/07/16 02:23:40;;;;;;;;;;;21.80;77.90;;;;;;4966598;28;1899;-73
2021/07/16 02:26:06;;;;;;;;;;;21.90;78.00;;;;;;4974680;28;1161;-72
2021/07/16 02:28:31;;;;;;;;;;;21.80;77.90;;;;;;4992605;28;1117;-73
2021/07/16 02:30:57;;;;;;;;;;;21.80;77.90;;;;;;4992603;28;1109;-73
2021/07/16 02:33:23;;;;;;;;;;;21.90;78.00;;;;;;4992283;28;1218;-72
2021/07/16 02:35:48;;;;;;;;;;;21.90;78.00;;;;;;4978183;28;1121;-72
2021/07/16 02:38:14;;;;;;;;;;;21.90;78.00;;;;;;4996072;28;1066;-72
2021/07/16 02:40:39;;;;;;;;;;;21.90;78.00;;;;;;4978212;28;1074;-72
2021/07/16 02:43:05;;;;;;;;;;;21.90;78.00;;;;;;4995989;28;1966;-72
2021/07/16 02:45:30;;;;;;;;;;;21.90;78.00;;;;;;4977986;28;1204;-73
2021/07/16 02:47:55;;;;;;;;;;;21.90;78.00;;;;;;4978401;28;1078;-72
2021/07/16 02:50:25;;;;;;;;;;;21.90;78.00;;;;;;4996085;28;1078;-72
2021/07/16 02:52:50;;;;;;;;;;;21.90;78.00;;;;;;4978789;28;1328;-72
2021/07/16 02:55:16;;;;;;;;;;;21.90;78.00;;;;;;4977540;28;1094;-72
2021/07/16 02:57:41;;;;;;;;;;;21.90;78.70;;;;;;4978052;28;1375;-72
2021/07/16 03:00:08;;;;;;;;;;;21.90;78.00;;;;;;4995940;28;1098;-72
2021/07/16 03:02:40;;;;;;;;;;;21.90;77.90;;;;;;4978222;28;1902;-72
2021/07/16 03:05:06;;;;;;;;;;;21.80;78.70;;;;;;4977716;28;1109;-72
2021/07/16 03:07:31;;;;;;;;;;;21.90;78.00;;;;;;4978015;28;1160;-72
2021/07/16 03:09:57;;;;;;;;;;;21.90;78.00;;;;;;4995597;28;1069;-72
2021/07/16 03:12:22;;;;;;;;;;;21.90;77.90;;;;;;4978078;28;1274;-72
2021/07/16 03:14:48;;;;;;;;;;;21.90;78.00;;;;;;4994345;28;1160;-72
2021/07/16 03:17:13;;;;;;;;;;;21.90;78.00;;;;;;4995580;28;1105;-72
2021/07/16 03:19:39;;;;;;;;;;;21.80;77.90;;;;;;4995270;28;1089;-72
2021/07/16 03:22:04;;;;;;;;;;;21.90;78.00;;;;;;4995235;28;1879;-72
2021/07/16 03:24:29;;;;;;;;;;;21.90;78.00;;;;;;4978045;28;1205;-72
2021/07/16 03:26:55;;;;;;;;;;;21.80;77.90;;;;;;4994850;28;1054;-72
2021/07/16 03:29:20;;;;;;;;;;;21.90;78.00;;;;;;4977342;28;1137;-72
2021/07/16 03:31:46;;;;;;;;;;;21.90;78.00;;;;;;4977835;28;1387;-72
2021/07/16 03:34:11;;;;;;;;;;;21.90;78.00;;;;;;4994640;28;1098;-72
2021/07/16 03:36:36;;;;;;;;;;;21.90;78.00;;;;;;4995051;28;1062;-72
2021/07/16 03:39:02;;;;;;;;;;;21.80;77.90;;;;;;4994653;28;1349;-72
2021/07/16 03:41:27;;;;;;;;;;;21.90;78.00;;;;;;4995309;28;1376;-72
2021/07/16 03:43:53;;;;;;;;;;;21.90;78.00;;;;;;4977756;28;2004;-72
2021/07/16 03:46:18;;;;;;;;;;;21.80;77.90;;;;;;4994662;28;1062;-72
2021/07/16 03:48:44;;;;;;;;;;;21.90;78.00;;;;;;4977543;28;1094;-72
2021/07/16 03:51:09;;;;;;;;;;;21.80;77.90;;;;;;4994356;28;1066;-72
2021/07/16 03:53:35;;;;;;;;;;;21.90;78.00;;;;;;4977317;28;1121;-72
2021/07/16 03:56:00;;;;;;;;;;;21.80;77.90;;;;;;4994155;28;1038;-72
2021/07/16 03:58:25;;;;;;;;;;;21.90;78.00;;;;;;4994554;28;1058;-72
2021/07/16 04:00:51;;;;;;;;;;;21.90;78.00;;;;;;4977520;28;1054;-72
2021/07/16 04:03:17;;;;;;;;;;;21.90;78.00;;;;;;4994182;28;1906;-72
2021/07/16 04:05:43;;;;;;;;;;;21.90;78.00;;;;;;4994058;28;1054;-72
2021/07/16 04:08:10;;;;;;;;;;;21.90;78.00;;;;;;4994431;28;995;-72
2021/07/16 04:10:36;;;;;;;;;;;21.90;78.00;;;;;;4994378;28;1053;-72
2021/07/16 04:13:03;;;;;;;;;;;21.80;77.90;;;;;;4976978;28;1371;-72
2021/07/16 04:15:28;;;;;;;;;;;21.90;78.00;;;;;;4976322;28;1058;-72
2021/07/16 04:17:54;;;;;;;;;;;21.80;77.90;;;;;;4994149;28;1090;-72
2021/07/16 04:20:19;;;;;;;;;;;21.80;77.90;;;;;;4976925;28;1074;-72
2021/07/16 04:22:45;;;;;;;;;;;21.90;78.00;;;;;;4994319;28;1898;-72
2021/07/16 04:25:14;;;;;;;;;;;21.80;77.90;;;;;;4976638;28;1109;-72
2021/07/16 04:27:40;;;;;;;;;;;21.90;78.00;;;;;;4994012;28;1168;-72
2021/07/16 04:30:05;;;;;;;;;;;21.80;77.90;;;;;;4976731;28;1066;-72
2021/07/16 04:32:31;;;;;;;;;;;21.80;77.90;;;;;;5006334;22;2123;-66
2021/07/16 04:34:56;;;;;;;;;;;21.90;78.00;;;;;;4982773;28;926;-66
2021/07/16 04:37:21;;;;;;;;;;;21.80;77.90;;;;;;4990676;28;1132;-65
2021/07/16 04:39:47;;;;;;;;;;;21.80;77.90;;;;;;4994345;28;1057;-66
2021/07/16 04:42:12;;;;;;;;;;;21.80;77.90;;;;;;4993985;28;1977;-65
2021/07/16 04:44:38;;;;;;;;;;;21.90;78.00;;;;;;4983813;28;1061;-66
2021/07/16 04:47:03;;;;;;;;;;;21.80;77.90;;;;;;4974761;28;1180;-65
2021/07/16 04:49:29;;;;;;;;;;;21.80;77.90;;;;;;4973701;28;1081;-66
2021/07/16 04:51:54;;;;;;;;;;;21.80;77.90;;;;;;4974497;28;1085;-65
2021/07/16 04:54:20;;;;;;;;;;;21.90;78.00;;;;;;4974821;28;1209;-65
2021/07/16 04:56:45;;;;;;;;;;;21.90;78.00;;;;;;4972992;28;1133;-66
2021/07/16 04:59:11;;;;;;;;;;;21.80;77.90;;;;;;4974673;28;1179;-66
2021/07/16 05:01:36;;;;;;;;;;;21.90;78.00;;;;;;4973341;28;1125;-66
2021/07/16 05:04:02;;;;;;;;;;;21.90;78.00;;;;;;4974226;28;1948;-66
2021/07/16 05:06:27;;;;;;;;;;;21.80;77.90;;;;;;4974597;28;1030;-66
2021/07/16 05:08:53;;;;;;;;;;;21.90;78.00;;;;;;4974386;28;1066;-66
2021/07/16 05:11:18;;;;;;;;;;;21.90;78.00;;;;;;4974549;28;1160;-66
2021/07/16 05:13:44;;;;;;;;;;;21.90;78.00;;;;;;4974253;28;1220;-66
2021/07/16 05:16:10;;;;;;;;;;;21.80;77.90;;;;;;4972945;28;1081;-66
2021/07/16 05:18:35;;;;;;;;;;;21.90;78.00;;;;;;4973154;28;1365;-65
2021/07/16 05:21:00;;;;;;;;;;;21.90;78.00;;;;;;4974177;28;1089;-66
2021/07/16 05:23:26;;;;;;;;;;;21.90;78.00;;;;;;4972715;28;1899;-66
2021/07/16 05:25:52;;;;;;;;;;;21.80;78.70;;;;;;4976815;28;1247;-67
2021/07/16 05:28:17;;;;;;;;;;;21.90;78.10;;;;;;4974259;28;1132;-66
2021/07/16 05:30:42;;;;;;;;;;;21.90;78.00;;;;;;4974100;28;1140;-65
2021/07/16 05:33:08;;;;;;;;;;;21.90;78.00;;;;;;4973897;28;1319;-67
2021/07/16 05:35:33;;;;;;;;;;;21.90;78.00;;;;;;4973746;28;1005;-66
2021/07/16 05:37:59;;;;;;;;;;;21.90;78.00;;;;;;4978527;28;1984;-64
2021/07/16 05:40:25;;;;;;;;;;;21.90;78.00;;;;;;4988707;28;1045;-64
2021/07/16 05:42:51;;;;;;;;;;;21.90;78.00;;;;;;4986727;28;1902;-64
2021/07/16 05:45:16;;;;;;;;;;;21.90;78.00;;;;;;4978966;28;1575;-64
2021/07/16 05:47:41;;;;;;;;;;;21.90;78.00;;;;;;4993320;28;1089;-64
2021/07/16 05:50:07;;;;;;;;;;;21.90;77.90;;;;;;4993306;28;1222;-63
2021/07/16 05:52:32;;;;;;;;;;;21.90;78.00;;;;;;4985343;28;1290;-64
2021/07/16 05:54:58;;;;;;;;;;;21.90;78.00;;;;;;4973597;28;1081;-65
2021/07/16 05:57:24;;;;;;;;;;;21.90;77.90;;;;;;4973989;28;1084;-64
2021/07/16 05:59:49;;;;;;;;;;;21.90;77.90;;;;;;4973697;28;1129;-64
2021/07/16 06:02:14;;;;;;;;;;;21.90;77.90;;;;;;4973792;28;1915;-64
2021/07/16 06:04:40;;;;;;;;;;;21.80;77.80;;;;;;4972164;28;1164;-64
2021/07/16 06:07:05;;;;;;;;;;;21.90;77.90;;;;;;4973675;28;1140;-64
2021/07/16 06:09:31;;;;;;;;;;;21.90;77.90;;;;;;4975703;28;1050;-64
2021/07/16 06:11:56;;;;;;;;;;;21.90;78.60;;;;;;4977698;28;1057;-64
2021/07/16 06:14:22;;;;;;;;;;;21.90;77.80;;;;;;4977036;28;1183;-65
2021/07/16 06:16:49;;;;;;;;;;;21.80;77.70;;;;;;4977566;28;1076;-64
2021/07/16 06:19:15;;;;;;;;;;;21.90;77.80;;;;;;4977596;28;1112;-64
2021/07/16 06:21:41;;;;;;;;;;;21.90;77.80;;;;;;4977252;28;1124;-64
2021/07/16 06:24:06;;;;;;;;;;;21.90;77.80;;;;;;4979432;28;1899;-66
2021/07/16 06:26:31;;;;;;;;;;;21.80;77.80;;;;;;4977373;28;1049;-66
2021/07/16 06:28:57;;;;;;;;;;;21.90;77.90;;;;;;4979329;28;1799;-66
2021/07/16 06:31:22;;;;;;;;;;;21.90;77.90;;;;;;4991690;28;1067;-66
2021/07/16 06:33:48;;;;;;;;;;;21.80;77.80;;;;;;4991369;28;1199;-66
2021/07/16 06:36:13;;;;;;;;;;;21.90;77.80;;;;;;4982914;28;1237;-66
2021/07/16 06:38:39;;;;;;;;;;;21.90;77.80;;;;;;4985647;28;1002;-66
2021/07/16 06:41:04;;;;;;;;;;;21.90;77.80;;;;;;4993151;28;1242;-66
2021/07/16 06:43:29;;;;;;;;;;;21.90;77.80;;;;;;4984663;28;1906;-66
2021/07/16 06:45:55;;;;;;;;;;;21.90;77.90;;;;;;4988282;28;1254;-66
2021/07/16 06:48:20;;;;;;;;;;;21.90;77.80;;;;;;4977130;28;1096;-66
2021/07/16 06:50:46;;;;;;;;;;;21.90;77.80;;;;;;4975498;28;1161;-66
2021/07/16 06:53:11;;;;;;;;;;;21.90;77.80;;;;;;4977355;28;1242;-65
2021/07/16 06:55:37;;;;;;;;;;;21.90;77.90;;;;;;4976488;28;982;-67
2021/07/16 06:58:02;;;;;;;;;;;21.90;77.80;;;;;;4976818;28;1065;-66
2021/07/16 07:00:28;;;;;;;;;;;21.90;77.90;;;;;;4977077;28;1097;-66
2021/07/16 07:02:53;;;;;;;;;;;21.90;77.90;;;;;;4976581;28;1910;-66
2021/07/16 07:05:21;;;;;;;;;;;21.90;77.80;;;;;;4976435;28;1199;-66
2021/07/16 07:07:47;;;;;;;;;;;21.90;77.90;;;;;;4976605;28;1115;-66
2021/07/16 07:10:12;;;;;;;;;;;21.90;77.90;;;;;;4976713;28;1163;-66
2021/07/16 07:12:39;;;;;;;;;;;21.90;77.90;;;;;;4976360;28;1202;-66
2021/07/16 07:15:05;;;;;;;;;;;21.80;77.90;;;;;;4976400;28;1085;-66
2021/07/16 07:17:31;;;;;;;;;;;21.80;77.80;;;;;;4976557;28;1077;-66
2021/07/16 07:19:56;;;;;;;;;;;21.90;77.90;;;;;;4982709;28;1069;-66
2021/07/16 07:22:22;;;;;;;;;;;21.90;77.90;;;;;;4982269;28;1898;-66
2021/07/16 07:24:47;;;;;;;;;;;21.90;77.90;;;;;;4978707;28;1096;-66
2021/07/16 07:27:13;;;;;;;;;;;21.90;77.90;;;;;;4976214;28;1057;-67
2021/07/16 07:29:38;;;;;;;;;;;21.90;77.90;;;;;;4976298;28;1081;-66
2021/07/16 07:32:04;;;;;;;;;;;21.90;77.90;;;;;;4976231;28;1081;-66
2021/07/16 07:34:29;;;;;;;;;;;21.90;77.90;;;;;;4975545;28;1287;-66
2021/07/16 07:36:55;;;;;;;;;;;21.90;77.90;;;;;;4975290;28;1148;-66
2021/07/16 07:39:20;;;;;;;;;;;21.80;77.80;;;;;;4976052;28;1141;-66
2021/07/16 07:41:46;;;;;;;;;;;21.90;77.90;;;;;;4988589;28;1053;-66
2021/07/16 07:44:15;;;;;;;;;;;21.90;77.90;;;;;;4976325;28;1980;-66
2021/07/16 07:46:40;;;;;;;;;;;21.90;77.90;;;;;;4988376;28;1141;-66
2021/07/16 07:49:07;;;;;;;;;;;21.90;77.90;;;;;;4995651;28;1129;-66
2021/07/16 07:51:33;;;;;;;;;;;21.90;77.90;;;;;;4995035;28;1187;-66
2021/07/16 07:53:58;;;;;;;;;;;21.90;77.90;;;;;;4975395;28;1318;-66
2021/07/16 07:56:24;;;;;;;;;;;21.90;77.90;;;;;;4985716;28;1607;-66
2021/07/16 07:58:49;;;;;;;;;;;21.90;77.90;;;;;;4975737;28;1062;-66
2021/07/16 08:01:15;;;;;;;;;;;21.90;77.90;;;;;;4993509;28;1804;-66
2021/07/16 08:03:41;;;;;;;;;;;21.90;77.90;;;;;;4983504;28;1985;-66
2021/07/16 08:06:06;;;;;;;;;;;21.90;77.90;;;;;;4976100;28;1676;-66
2021/07/16 08:08:32;;;;;;;;;;;21.90;77.90;;;;;;4983490;28;1266;-67
2021/07/16 08:10:57;;;;;;;;;;;21.90;77.90;;;;;;4976032;28;1392;-67
2021/07/16 08:13:23;;;;;;;;;;;21.90;77.90;;;;;;4974400;28;1673;-65
2021/07/16 08:15:48;;;;;;;;;;;21.90;77.90;;;;;;4975406;28;1547;-66
2021/07/16 08:18:13;;;;;;;;;;;21.90;77.90;;;;;;4974233;28;1611;-66
2021/07/16 08:20:39;;;;;;;;;;;21.90;77.90;;;;;;4975583;28;1444;-66
2021/07/16 08:23:04;;;;;;;;;;;21.90;77.90;;;;;;4975197;28;1910;-67
2021/07/16 08:25:30;;;;;;;;;;;21.90;77.90;;;;;;4976706;28;1195;-67
2021/07/16 08:27:56;;;;;;;;;;;21.90;77.90;;;;;;4978350;28;1610;-67
2021/07/16 08:30:21;;;;;;;;;;;21.90;77.90;;;;;;4981698;28;1528;-68
2021/07/16 08:32:47;;;;;;;;;;;21.90;78.00;;;;;;4974034;28;1546;-67
2021/07/16 08:35:13;;;;;;;;;;;21.90;77.90;;;;;;4974865;28;1606;-67
2021/07/16 08:37:39;;;;;;;;;;;21.90;77.90;;;;;;4975322;28;1673;-67
2021/07/16 08:40:05;;;;;;;;;;;21.90;77.90;;;;;;4975059;28;1594;-66
2021/07/16 08:42:30;;;;;;;;;;;21.90;77.90;;;;;;4976029;28;1920;-67
2021/07/16 08:44:55;;;;;;;;;;;21.90;77.90;;;;;;4978824;28;1492;-66
2021/07/16 08:47:21;;;;;;;;;;;21.90;77.90;;;;;;4974944;28;1740;-67
2021/07/16 08:49:46;;;;;;;;;;;21.90;77.90;;;;;;4974882;28;1342;-66
2021/07/16 08:52:12;;;;;;;;;;;21.90;77.90;;;;;;4975281;28;1351;-66
2021/07/16 08:54:44;;;;;;;;;;;21.90;77.90;;;;;;4973316;28;1050;-67
2021/07/16 08:57:11;;;;;;;;;;;21.90;77.90;;;;;;4973727;28;1112;-66
2021/07/16 08:59:37;;;;;;;;;;;21.90;77.90;;;;;;4967350;28;1542;-66
2021/07/16 09:02:04;;;;;;;;;;;21.90;77.90;;;;;;4973301;28;1542;-66
2021/07/16 09:04:30;;;;;;;;;;;21.90;78.00;;;;;;4974006;28;1931;-67
2021/07/16 09:06:55;;;;;;;;;;;21.90;78.10;;;;;;4973507;28;1247;-66
2021/07/16 09:09:35;;;;;;;;;;;21.90;78.10;;;;;;4973141;28;1062;-67
2021/07/16 09:12:00;;;;;;;;;;;21.90;78.20;;;;;;4973609;28;1164;-67
2021/07/16 09:14:27;;;;;;;;;;;21.90;78.10;;;;;;4973618;28;1256;-68
2021/07/16 09:16:53;;;;;;;;;;;21.90;78.10;;;;;;4973027;28;1061;-67
2021/07/16 09:19:45;;;;;;;;;;;21.90;78.10;;;;;;4974245;28;1085;-67
2021/07/16 09:22:17;;;;;;;;;;;21.90;78.80;;;;;;4970207;28;1915;-67
2021/07/16 09:24:43;;;;;;;;;;;21.90;78.10;;;;;;4973830;28;1097;-66
2021/07/16 09:27:28;;;;;;;;;;;21.90;78.10;;;;;;4973994;28;1073;-66
2021/07/16 09:29:53;;;;;;;;;;;21.90;78.10;;;;;;4974354;28;963;-67
2021/07/16 09:32:18;;;;;;;;;;;21.90;78.20;;;;;;4973897;28;1281;-67
2021/07/16 09:34:49;;;;;;;;;;;21.90;78.20;;;;;;4972685;28;1089;-67
2021/07/16 09:37:14;;;;;;;;;;;21.90;78.20;;;;;;4974107;28;1132;-67
2021/07/16 09:39:40;;;;;;;;;;;21.90;78.20;;;;;;4973930;28;1140;-67
2021/07/16 09:42:05;;;;;;;;;;;21.90;78.30;;;;;;4969231;28;1310;-67
2021/07/16 09:44:34;;;;;;;;;;;21.90;78.20;;;;;;4973296;28;1969;-67
2021/07/16 09:47:10;;;;;;;;;;;21.90;78.10;;;;;;4988822;28;1142;-68
2021/07/16 09:49:36;;;;;;;;;;;21.90;78.20;;;;;;4993331;28;1128;-67
2021/07/16 09:52:11;;;;;;;;;;;21.90;78.20;;;;;;4988676;28;1081;-68
2021/07/16 09:54:37;;;;;;;;;;;21.90;78.30;;;;;;4972410;28;1062;-67
2021/07/16 09:57:03;;;;;;;;;;;21.90;78.30;;;;;;4974014;28;1168;-67
2021/07/16 09:59:28;;;;;;;;;;;21.90;78.30;;;;;;4974043;28;1148;-66
2021/07/16 10:01:54;;;;;;;;;;;21.90;78.40;;;;;;4973862;28;1200;-67
2021/07/16 10:04:32;;;;;;;;;;;21.90;78.30;;;;;;4973281;28;1965;-68
2021/07/16 10:06:57;;;;;;;;;;;21.90;78.30;;;;;;4973947;28;997;-67
2021/07/16 10:09:23;;;;;;;;;;;21.90;78.30;;;;;;4974066;28;1144;-67
2021/07/16 10:11:49;;;;;;;;;;;21.90;78.30;;;;;;4972151;28;1216;-67
2021/07/16 10:14:15;;;;;;;;;;;21.90;78.20;;;;;;4972446;28;1310;-67
2021/07/16 10:16:47;;;;;;;;;;;21.90;78.20;;;;;;4973758;28;1125;-67
2021/07/16 10:19:12;;;;;;;;;;;21.90;78.20;;;;;;4973399;28;1078;-68
2021/07/16 10:21:39;;;;;;;;;;;21.90;78.20;;;;;;4973853;28;1045;-67
2021/07/16 10:24:04;;;;;;;;;;;21.90;78.20;;;;;;4976865;28;1903;-66
2021/07/16 10:26:30;;;;;;;;;;;21.90;78.20;;;;;;4974343;28;999;-66
2021/07/16 10:28:55;;;;;;;;;;;21.90;78.30;;;;;;4971282;28;1062;-67
2021/07/16 10:31:32;;;;;;;;;;;21.90;78.20;;;;;;4979117;28;1077;-66
2021/07/16 10:33:59;;;;;;;;;;;21.90;78.30;;;;;;5012219;23;3732;-71
2021/07/16 10:36:36;;;;;;;;;;;21.90;78.20;;;;;;4990897;28;1905;-73
2021/07/16 10:39:02;;;;;;;;;;;21.90;78.20;;;;;;5009226;28;932;-73
2021/07/16 10:41:31;;;;;;;;;;;21.90;78.30;;;;;;5004840;28;1088;-73
2021/07/16 10:43:56;;;;;;;;;;;21.90;78.30;;;;;;5006340;28;1922;-73
2021/07/16 10:46:29;;;;;;;;;;;21.90;78.30;;;;;;4988704;28;2206;-72
2021/07/16 10:48:55;;;;;;;;;;;21.90;78.30;;;;;;4974779;28;1149;-73
2021/07/16 10:51:25;;;;;;;;;;;21.90;78.30;;;;;;4975538;28;1078;-73
2021/07/16 10:53:50;;;;;;;;;;;21.90;78.30;;;;;;5005735;28;1303;-73
2021/07/16 10:56:18;;;;;;;;;;;21.90;78.30;;;;;;4978062;28;1074;-73
2021/07/16 10:58:44;;;;;;;;;;;21.90;78.40;;;;;;5015866;28;1096;-73
2021/07/16 11:01:10;;;;;;;;;;;21.90;78.40;;;;;;5015569;28;1061;-73
2021/07/16 11:03:36;;;;;;;;;;;21.90;78.40;;;;;;4978725;28;1898;-73
2021/07/16 11:06:02;;;;;;;;;;;21.90;78.40;;;;;;4978800;28;1050;-73
2021/07/16 11:08:28;;;;;;;;;;;21.90;78.50;;;;;;4978766;28;1165;-73
2021/07/16 11:10:59;;;;;;;;;;;21.90;78.70;;;;;;4996041;28;1109;-73
2021/07/16 11:13:34;;;;;;;;;;;21.90;78.70;;;;;;4978414;28;1334;-73
2021/07/16 11:16:00;;;;;;;;;;;21.90;78.70;;;;;;4978341;28;1114;-73
2021/07/16 11:18:27;;;;;;;;;;;21.90;78.50;;;;;;4996042;28;1133;-72
2021/07/16 11:20:52;;;;;;;;;;;21.90;78.50;;;;;;4995909;28;1125;-74
2021/07/16 11:23:19;;;;;;;;;;;21.90;78.60;;;;;;4995735;28;1894;-73
2021/07/16 11:25:45;;;;;;;;;;;21.90;78.80;;;;;;4978810;28;1156;-73
2021/07/16 11:28:11;;;;;;;;;;;21.90;78.80;;;;;;4978526;28;1070;-73
2021/07/16 11:30:36;;;;;;;;;;;21.90;78.80;;;;;;4995730;28;1172;-71
2021/07/16 11:33:05;;;;;;;;;;;21.90;78.80;;;;;;4995582;28;1273;-72
2021/07/16 11:35:31;;;;;;;;;;;21.90;78.80;;;;;;4995362;28;1085;-71
2021/07/16 11:37:57;;;;;;;;;;;22.00;79.00;;;;;;4978309;28;1138;-72
2021/07/16 11:40:23;;;;;;;;;;;21.90;78.90;;;;;;4977983;28;1117;-70
2021/07/16 11:42:49;;;;;;;;;;;21.90;79.10;;;;;;4995484;28;2005;-70
2021/07/16 11:45:22;;;;;;;;;;;21.90;79.10;;;;;;4977678;28;1110;-71
2021/07/16 11:47:47;;;;;;;;;;;22.00;79.20;;;;;;4978230;28;1082;-71
2021/07/16 11:50:14;;;;;;;;;;;21.90;79.40;;;;;;4995354;28;1117;-71
2021/07/16 11:52:47;;;;;;;;;;;21.90;79.40;;;;;;4978200;28;1273;-71
2021/07/16 11:55:16;;;;;;;;;;;22.00;79.50;;;;;;4999131;28;1089;-69
2021/07/16 11:57:51;;;;;;;;;;;22.00;79.70;;;;;;4997256;28;1148;-70
2021/07/16 12:00:17;;;;;;;;;;;22.00;79.50;;;;;;5014670;28;1116;-73
2021/07/16 12:02:43;;;;;;;;;;;22.00;79.60;;;;;;5014717;28;1910;-72
2021/07/16 12:05:08;;;;;;;;;;;22.00;79.60;;;;;;4997207;28;1227;-72
2021/07/16 12:07:34;;;;;;;;;;;22.00;79.60;;;;;;5014439;28;1096;-73
2021/07/16 12:09:59;;;;;;;;;;;22.00;79.60;;;;;;5014707;28;1124;-72
2021/07/16 12:12:25;;;;;;;;;;;22.00;79.60;;;;;;5014855;28;1144;-71
2021/07/16 12:14:54;;;;;;;;;;;22.00;79.70;;;;;;4996975;28;1289;-72
2021/07/16 12:17:23;;;;;;;;;;;22.00;79.70;;;;;;5014459;28;1068;-72
2021/07/16 12:19:49;;;;;;;;;;;22.00;79.70;;;;;;5014183;28;1168;-72
2021/07/16 12:22:14;;;;;;;;;;;22.00;79.70;;;;;;4997078;28;1058;-73
2021/07/16 12:24:41;;;;;;;;;;;22.00;79.70;;;;;;4990029;28;1899;-72
2021/07/16 12:27:10;;;;;;;;;;;22.00;79.80;;;;;;4977420;28;1184;-72
2021/07/16 12:29:36;;;;;;;;;;;22.00;79.90;;;;;;4973237;28;2309;-72
2021/07/16 12:32:02;;;;;;;;;;;22.00;80.20;;;;;;4977497;28;1067;-72
2021/07/16 12:34:27;;;;;;;;;;;22.00;80.30;;;;;;4993868;28;1204;-72
2021/07/16 12:37:25;;;;;;;;;;;22.00;80.20;;;;;;4993126;28;1269;-74
2021/07/16 12:39:59;;;;;;;;;;;22.00;80.30;;;;;;4961363;28;1505;-75
2021/07/16 12:42:25;;;;;;;;;;;22.00;80.10;;;;;;4977903;28;1906;-72
2021/07/16 12:45:09;;;;;;;;;;;22.00;80.10;;;;;;4993893;28;1327;-71
2021/07/16 12:47:44;;;;;;;;;;;22.00;80.20;;;;;;4996514;28;1054;-71
2021/07/16 12:50:11;;;;;;;;;;;22.00;80.10;;;;;;4980162;28;1314;-72
2021/07/16 12:52:37;;;;;;;;;;;22.00;80.20;;;;;;4987087;28;1313;-71
2021/07/16 12:55:09;;;;;;;;;;;22.00;80.30;;;;;;4976474;28;1168;-75
2021/07/16 12:57:34;;;;;;;;;;;22.00;80.20;;;;;;4976510;28;1134;-73
2021/07/16 13:00:00;;;;;;;;;;;22.00;80.30;;;;;;4976684;28;1201;-73
2021/07/16 13:02:26;;;;;;;;;;;22.00;80.30;;;;;;4993962;28;1961;-74
2021/07/16 13:04:51;;;;;;;;;;;22.00;80.30;;;;;;4993639;28;1164;-72
2021/07/16 13:07:24;;;;;;;;;;;22.00;80.40;;;;;;4994061;28;1082;-71
2021/07/16 13:09:49;;;;;;;;;;;22.00;80.30;;;;;;4993767;28;1124;-74
2021/07/16 13:12:18;;;;;;;;;;;22.00;80.30;;;;;;4993913;28;1121;-74
2021/07/16 13:14:50;;;;;;;;;;;22.00;80.20;;;;;;4976468;28;1291;-74
2021/07/16 13:17:19;;;;;;;;;;;22.00;80.30;;;;;;4976160;28;1097;-73
2021/07/16 13:19:46;;;;;;;;;;;22.00;80.30;;;;;;4993672;28;1070;-74
2021/07/16 13:22:11;;;;;;;;;;;22.00;80.20;;;;;;4957210;28;1468;-73
2021/07/16 13:24:36;;;;;;;;;;;22.10;80.30;;;;;;4993740;28;1948;-74
2021/07/16 13:27:02;;;;;;;;;;;22.10;80.20;;;;;;4976239;28;1082;-73
2021/07/16 13:29:27;;;;;;;;;;;22.10;80.40;;;;;;4976117;28;1130;-74
2021/07/16 13:31:53;;;;;;;;;;;22.10;80.30;;;;;;4956839;28;1116;-73
2021/07/16 13:34:18;;;;;;;;;;;22.10;80.20;;;;;;4975544;28;1382;-74
2021/07/16 13:36:44;;;;;;;;;;;22.10;80.30;;;;;;4976209;28;1117;-74
2021/07/16 13:39:09;;;;;;;;;;;22.10;80.20;;;;;;4993137;28;1097;-75
2021/07/16 13:41:35;;;;;;;;;;;22.10;80.20;;;;;;4976167;28;1303;-74
2021/07/16 13:44:00;;;;;;;;;;;22.00;80.00;;;;;;4975550;28;1915;-73
2021/07/16 13:46:25;;;;;;;;;;;22.10;80.10;;;;;;4976217;28;1066;-75
2021/07/16 13:48:51;;;;;;;;;;;22.10;80.00;;;;;;4993364;28;1105;-72
2021/07/16 13:51:17;;;;;;;;;;;22.10;80.00;;;;;;4993462;28;1015;-72
2021/07/16 13:53:42;;;;;;;;;;;22.10;80.00;;;;;;4993431;28;1276;-74
2021/07/16 13:56:08;;;;;;;;;;;22.10;79.90;;;;;;4993391;28;1061;-75
2021/07/16 13:58:33;;;;;;;;;;;22.10;80.70;;;;;;4975931;28;1142;-73
2021/07/16 14:00:59;;;;;;;;;;;22.10;79.90;;;;;;4993582;28;1102;-72
2021/07/16 14:03:24;;;;;;;;;;;22.10;79.80;;;;;;4992994;28;1914;-75
2021/07/16 14:05:50;;;;;;;;;;;22.10;79.90;;;;;;4993146;28;1058;-75
2021/07/16 14:08:15;;;;;;;;;;;22.10;79.80;;;;;;4993108;28;1133;-75
2021/07/16 14:10:40;;;;;;;;;;;22.10;79.80;;;;;;4975805;28;1082;-75
2021/07/16 14:13:06;;;;;;;;;;;22.10;79.70;;;;;;4993227;28;1255;-73
2021/07/16 14:15:31;;;;;;;;;;;22.10;79.80;;;;;;4992973;28;1104;-75
2021/07/16 14:17:57;;;;;;;;;;;22.00;79.70;;;;;;4984966;28;1964;-74
2021/07/16 14:20:22;;;;;;;;;;;22.10;79.80;;;;;;4992767;28;1021;-73
2021/07/16 14:22:48;;;;;;;;;;;22.00;79.70;;;;;;4992577;28;1903;-75
2021/07/16 14:25:13;;;;;;;;;;;22.00;79.70;;;;;;4992600;28;1094;-75